sensor_id;sensor_type;location;lat;lon;timestamp;pressure;altitude;pressure_sealevel;temperature;humidity
48027;BME280;50714;49.208;5.364;2023-02-18T00:04:40;100569.13;;;11.00;100.00
48027;BME280;50714;49.208;5.364;2023-02-18T00:14:40;100573.56;;;10.92;100.00
48027;BME280;50714;49.208;5.364;2023-02-18T00:24:40;100577.09;;;10.93;100.00
48027;BME280;50714;49.208;5.364;2023-02-18T00:34:41;100556.78;;;10.82;100.00
48027;BME280;50714;49.208;5.364;2023-02-18T00:44:41;100554.44;;;10.79;100.00
48027;BME280;50714;49.208;5.364;2023-02-18T00:54:42;100543.53;;;10.65;99.83
48027;BME280;50714;49.208;5.364;2023-02-18T01:04:42;100554.78;;;10.45;100.00
48027;BME280;50714;49.208;5.364;2023-02-18T01:14:43;100555.97;;;10.43;99.76
48027;BME280;50714;49.208;5.364;2023-02-18T01:24:43;100547.03;;;10.42;99.33
48027;BME280;50714;49.208;5.364;2023-02-18T01:34:44;100556.16;;;10.41;99.15
48027;BME280;50714;49.208;5.364;2023-02-18T01:44:46;100548.59;;;10.37;98.89
48027;BME280;50714;49.208;5.364;2023-02-18T01:54:53;100528.53;;;10.39;99.36
48027;BME280;50714;49.208;5.364;2023-02-18T02:04:55;100514.81;;;10.41;99.25
48027;BME280;50714;49.208;5.364;2023-02-18T02:15:32;100502.06;;;10.35;98.61
48027;BME280;50714;49.208;5.364;2023-02-18T02:35:43;100469.97;;;10.40;98.41
48027;BME280;50714;49.208;5.364;2023-02-18T02:46:11;100461.16;;;10.46;98.68
48027;BME280;50714;49.208;5.364;2023-02-18T02:56:20;100434.19;;;10.46;98.87
48027;BME280;50714;49.208;5.364;2023-02-18T03:16:52;100432.84;;;10.42;99.66
48027;BME280;50714;49.208;5.364;2023-02-18T03:26:59;100430.66;;;10.45;99.72
48027;BME280;50714;49.208;5.364;2023-02-18T03:37:04;100429.97;;;10.43;99.80
48027;BME280;50714;49.208;5.364;2023-02-18T03:47:05;100416.44;;;10.51;99.97
48027;BME280;50714;49.208;5.364;2023-02-18T03:57:05;100422.97;;;10.57;99.86
48027;BME280;50714;49.208;5.364;2023-02-18T04:07:05;100419.25;;;10.58;100.00
48027;BME280;50714;49.208;5.364;2023-02-18T04:17:06;100411.81;;;10.60;100.00
48027;BME280;50714;49.208;5.364;2023-02-18T04:27:06;100410.31;;;10.57;100.00
48027;BME280;50714;49.208;5.364;2023-02-18T04:37:06;100412.28;;;10.64;100.00
48027;BME280;50714;49.208;5.364;2023-02-18T04:47:07;100412.75;;;10.67;99.72
48027;BME280;50714;49.208;5.364;2023-02-18T04:57:07;100402.81;;;10.68;99.38
48027;BME280;50714;49.208;5.364;2023-02-18T05:07:08;100395.91;;;10.65;98.81
48027;BME280;50714;49.208;5.364;2023-02-18T05:17:08;100406.59;;;10.58;98.31
48027;BME280;50714;49.208;5.364;2023-02-18T05:27:09;100409.97;;;10.61;99.07
48027;BME280;50714;49.208;5.364;2023-02-18T05:37:09;100407.25;;;10.61;99.33
48027;BME280;50714;49.208;5.364;2023-02-18T05:47:11;100396.69;;;10.51;100.00
48027;BME280;50714;49.208;5.364;2023-02-18T05:57:13;100399.75;;;10.48;100.00
48027;BME280;50714;49.208;5.364;2023-02-18T06:07:14;100397.78;;;10.42;100.00
48027;BME280;50714;49.208;5.364;2023-02-18T06:17:15;100395.66;;;10.37;100.00
48027;BME280;50714;49.208;5.364;2023-02-18T06:27:15;100381.00;;;10.32;100.00
48027;BME280;50714;49.208;5.364;2023-02-18T06:37:16;100377.66;;;10.30;100.00
48027;BME280;50714;49.208;5.364;2023-02-18T06:47:16;100367.22;;;10.27;100.00
48027;BME280;50714;49.208;5.364;2023-02-18T06:57:16;100366.38;;;10.26;100.00
48027;BME280;50714;49.208;5.364;2023-02-18T07:07:17;100360.44;;;10.31;99.81
48027;BME280;50714;49.208;5.364;2023-02-18T07:17:17;100365.66;;;10.32;98.94
48027;BME280;50714;49.208;5.364;2023-02-18T07:27:18;100366.63;;;10.39;98.79
48027;BME280;50714;49.208;5.364;2023-02-18T07:37:19;100377.03;;;10.42;98.45
48027;BME280;50714;49.208;5.364;2023-02-18T07:47:20;100376.50;;;10.47;98.72
48027;BME280;50714;49.208;5.364;2023-02-18T07:57:20;100384.34;;;10.56;97.95
48027;BME280;50714;49.208;5.364;2023-02-18T08:07:21;100391.34;;;10.66;97.01
48027;BME280;50714;49.208;5.364;2023-02-18T08:17:22;100398.41;;;10.67;96.22
48027;BME280;50714;49.208;5.364;2023-02-18T08:27:23;100385.34;;;10.93;95.79
48027;BME280;50714;49.208;5.364;2023-02-18T08:37:24;100387.16;;;11.01;92.65
48027;BME280;50714;49.208;5.364;2023-02-18T08:47:24;100381.84;;;11.07;92.42
48027;BME280;50714;49.208;5.364;2023-02-18T08:57:26;100393.38;;;11.16;91.31
48027;BME280;50714;49.208;5.364;2023-02-18T09:07:27;100398.25;;;11.20;89.67
48027;BME280;50714;49.208;5.364;2023-02-18T09:17:28;100416.50;;;11.18;88.75
48027;BME280;50714;49.208;5.364;2023-02-18T09:27:28;100420.44;;;11.45;87.90
48027;BME280;50714;49.208;5.364;2023-02-18T09:37:29;100418.13;;;11.57;85.14
48027;BME280;50714;49.208;5.364;2023-02-18T09:57:55;100424.50;;;12.00;77.35
48027;BME280;50714;49.208;5.364;2023-02-18T10:08:11;100434.50;;;12.00;78.52
48027;BME280;50714;49.208;5.364;2023-02-18T10:18:29;100441.28;;;12.10;76.34
48027;BME280;50714;49.208;5.364;2023-02-18T10:28:30;100439.97;;;12.06;78.63
48027;BME280;50714;49.208;5.364;2023-02-18T10:59:18;100450.53;;;12.58;76.37
48027;BME280;50714;49.208;5.364;2023-02-18T11:09:37;100456.16;;;12.78;72.92
48027;BME280;50714;49.208;5.364;2023-02-18T11:19:39;100458.09;;;12.84;72.72
48027;BME280;50714;49.208;5.364;2023-02-18T11:29:39;100456.69;;;12.31;73.19
48027;BME280;50714;49.208;5.364;2023-02-18T11:39:44;100455.81;;;12.09;73.34
48027;BME280;50714;49.208;5.364;2023-02-18T12:00:15;100438.22;;;11.99;71.50
48027;BME280;50714;49.208;5.364;2023-02-18T12:10:25;100438.09;;;12.07;73.34
48027;BME280;50714;49.208;5.364;2023-02-18T13:22:19;100349.00;;;12.05;74.19
48027;BME280;50714;49.208;5.364;2023-02-18T13:32:41;100333.22;;;12.09;73.48
48027;BME280;50714;49.208;5.364;2023-02-18T13:42:51;100322.00;;;12.33;74.95
48027;BME280;50714;49.208;5.364;2023-02-18T14:24:09;100271.13;;;12.22;71.83
48027;BME280;50714;49.208;5.364;2023-02-18T14:54:31;100267.53;;;12.15;74.31
48027;BME280;50714;49.208;5.364;2023-02-18T15:04:32;100249.50;;;12.22;74.28
48027;BME280;50714;49.208;5.364;2023-02-18T15:14:36;100257.94;;;12.12;74.26
48027;BME280;50714;49.208;5.364;2023-02-18T15:24:37;100257.25;;;12.04;74.37
48027;BME280;50714;49.208;5.364;2023-02-18T15:34:38;100276.50;;;11.94;75.12
48027;BME280;50714;49.208;5.364;2023-02-18T15:44:45;100261.28;;;11.93;74.69
48027;BME280;50714;49.208;5.364;2023-02-18T15:54:47;100261.72;;;11.75;74.59
48027;BME280;50714;49.208;5.364;2023-02-18T16:05:13;100271.91;;;11.58;74.65
48027;BME280;50714;49.208;5.364;2023-02-18T16:15:17;100256.97;;;11.41;75.58
48027;BME280;50714;49.208;5.364;2023-02-18T16:25:24;100269.31;;;11.29;76.80
48027;BME280;50714;49.208;5.364;2023-02-18T16:35:28;100269.47;;;11.13;76.69
48027;BME280;50714;49.208;5.364;2023-02-18T16:45:38;100265.56;;;11.15;77.00
48027;BME280;50714;49.208;5.364;2023-02-18T16:55:39;100272.13;;;11.06;77.13
48027;BME280;50714;49.208;5.364;2023-02-18T17:05:40;100262.16;;;10.92;77.84
48027;BME280;50714;49.208;5.364;2023-02-18T17:15:41;100269.78;;;10.88;77.73
48027;BME280;50714;49.208;5.364;2023-02-18T17:25:42;100273.72;;;10.86;77.42
48027;BME280;50714;49.208;5.364;2023-02-18T17:35:44;100281.34;;;10.82;77.47
48027;BME280;50714;49.208;5.364;2023-02-18T17:45:48;100287.13;;;10.79;77.48
48027;BME280;50714;49.208;5.364;2023-02-18T17:55:49;100297.81;;;10.73;77.37
48027;BME280;50714;49.208;5.364;2023-02-18T18:05:50;100302.72;;;10.69;77.87
48027;BME280;50714;49.208;5.364;2023-02-18T18:15:53;100302.72;;;10.69;78.32
48027;BME280;50714;49.208;5.364;2023-02-18T18:25:56;100304.31;;;10.64;78.55
48027;BME280;50714;49.208;5.364;2023-02-18T18:35:59;100301.81;;;10.62;79.12
48027;BME280;50714;49.208;5.364;2023-02-18T18:46:00;100304.22;;;10.57;79.97
48027;BME280;50714;49.208;5.364;2023-02-18T18:56:03;100311.91;;;10.45;81.32
48027;BME280;50714;49.208;5.364;2023-02-18T19:06:04;100313.38;;;10.33;82.48
48027;BME280;50714;49.208;5.364;2023-02-18T19:16:21;100310.06;;;10.23;84.81
48027;BME280;50714;49.208;5.364;2023-02-18T19:26:22;100297.66;;;10.14;85.80
48027;BME280;50714;49.208;5.364;2023-02-18T19:36:23;100299.09;;;10.02;87.32
48027;BME280;50714;49.208;5.364;2023-02-18T19:46:23;100296.09;;;9.97;88.13
48027;BME280;50714;49.208;5.364;2023-02-18T19:56:24;100293.13;;;9.91;88.64
48027;BME280;50714;49.208;5.364;2023-02-18T20:06:24;100291.22;;;9.92;89.31
48027;BME280;50714;49.208;5.364;2023-02-18T20:16:25;100283.22;;;9.84;90.66
48027;BME280;50714;49.208;5.364;2023-02-18T20:26:25;100293.03;;;9.77;90.77
48027;BME280;50714;49.208;5.364;2023-02-18T20:36:26;100288.13;;;9.80;91.17
48027;BME280;50714;49.208;5.364;2023-02-18T20:46:26;100280.75;;;9.74;91.73
48027;BME280;50714;49.208;5.364;2023-02-18T20:56:27;100280.09;;;9.72;92.32
48027;BME280;50714;49.208;5.364;2023-02-18T21:06:27;100270.50;;;9.70;92.75
48027;BME280;50714;49.208;5.364;2023-02-18T21:16:29;100264.66;;;9.66;93.01
48027;BME280;50714;49.208;5.364;2023-02-18T21:26:31;100259.63;;;9.63;93.50
48027;BME280;50714;49.208;5.364;2023-02-18T21:36:32;100257.28;;;9.60;93.81
48027;BME280;50714;49.208;5.364;2023-02-18T21:46:34;100249.38;;;9.58;94.40
48027;BME280;50714;49.208;5.364;2023-02-18T21:56:35;100236.41;;;9.54;94.62
48027;BME280;50714;49.208;5.364;2023-02-18T22:06:36;100237.13;;;9.48;94.71
48027;BME280;50714;49.208;5.364;2023-02-18T22:16:36;100234.25;;;9.49;94.92
48027;BME280;50714;49.208;5.364;2023-02-18T22:26:37;100230.72;;;9.49;94.73
48027;BME280;50714;49.208;5.364;2023-02-18T22:36:38;100228.75;;;9.43;95.06
48027;BME280;50714;49.208;5.364;2023-02-18T22:46:38;100227.09;;;9.42;95.44
48027;BME280;50714;49.208;5.364;2023-02-18T22:56:39;100214.28;;;9.44;96.09
48027;BME280;50714;49.208;5.364;2023-02-18T23:06:41;100205.53;;;9.42;96.29
48027;BME280;50714;49.208;5.364;2023-02-18T23:27:05;100193.44;;;9.38;95.79
48027;BME280;50714;49.208;5.364;2023-02-18T23:37:07;100201.69;;;9.36;95.48
48027;BME280;50714;49.208;5.364;2023-02-18T23:47:08;100206.38;;;9.42;94.84
48027;BME280;50714;49.208;5.364;2023-02-18T23:57:08;100215.56;;;9.48;94.44
